createdAt,value
2018-12-13T00:00:33.196Z,8.43
2018-12-13T00:03:03.232Z,8.77
2018-12-13T00:05:33.320Z,8.70
2018-12-13T00:08:01.328Z,8.80
2018-12-13T00:10:29.335Z,9.23
2018-12-13T00:12:59.371Z,8.50
2018-12-13T00:15:31.137Z,8.23
2018-12-13T00:17:59.283Z,8.60
2018-12-13T00:20:27.372Z,8.20
2018-12-13T00:22:55.338Z,8.03
2018-12-13T00:25:23.348Z,7.87
2018-12-13T00:27:51.927Z,7.80
2018-12-13T00:30:19.880Z,8.60
2018-12-13T00:32:47.872Z,8.43
2018-12-13T00:35:16.033Z,8.17
2018-12-13T00:37:44.028Z,8.77
2018-12-13T00:40:12.018Z,8.10
2018-12-13T00:42:39.994Z,8.47
2018-12-13T00:45:07.948Z,8.40
2018-12-13T00:47:35.934Z,8.40
2018-12-13T00:50:04.051Z,7.77
2018-12-13T00:52:32.060Z,8.70
2018-12-13T00:55:00.042Z,8.60
2018-12-13T00:57:28.037Z,8.60
2018-12-13T00:59:56.847Z,8.20
2018-12-13T01:02:24.860Z,8.20
2018-12-13T01:04:52.828Z,8.23
2018-12-13T01:07:20.810Z,7.63
2018-12-13T01:09:49.568Z,8.17
2018-12-13T01:12:18.407Z,7.97
2018-12-13T01:14:46.366Z,7.73
2018-12-13T01:17:15.834Z,8.30
2018-12-13T01:19:43.780Z,8.43
2018-12-13T01:22:11.876Z,8.80
2018-12-13T01:24:40.235Z,7.97
2018-12-13T01:27:08.285Z,8.40
2018-12-13T01:29:36.973Z,7.93
2018-12-13T01:32:04.959Z,8.20
2018-12-13T01:34:32.935Z,8.70
2018-12-13T01:37:00.902Z,8.23
2018-12-13T01:39:28.884Z,8.47
2018-12-13T01:41:57.003Z,8.90
2018-12-13T01:44:24.966Z,8.30
2018-12-13T01:46:53.024Z,8.70
2018-12-13T01:49:25.082Z,7.87
2018-12-13T01:51:53.355Z,8.57
2018-12-13T01:54:21.310Z,8.47
2018-12-13T01:56:49.340Z,8.23
2018-12-13T01:59:17.461Z,8.63
2018-12-13T02:01:45.428Z,8.57
2018-12-13T02:04:13.397Z,8.80
2018-12-13T02:06:41.936Z,9.07
2018-12-13T02:09:10.419Z,8.50
2018-12-13T02:11:40.944Z,9.23
2018-12-13T02:14:08.948Z,8.87
2018-12-13T02:16:36.927Z,8.87
2018-12-13T02:19:04.868Z,8.67
2018-12-13T02:21:32.828Z,8.93
2018-12-13T02:24:00.922Z,8.77
2018-12-13T02:26:29.779Z,8.40
2018-12-13T02:28:58.453Z,8.80
2018-12-13T02:31:26.396Z,8.67
2018-12-13T02:33:54.343Z,9.03
2018-12-13T02:36:22.309Z,8.63
2018-12-13T02:38:50.929Z,9.07
2018-12-13T02:41:19.647Z,8.43
2018-12-13T02:43:47.593Z,8.97
2018-12-13T02:46:15.539Z,8.57
2018-12-13T02:48:44.271Z,8.60
2018-12-13T02:51:12.232Z,8.40
2018-12-13T02:53:40.168Z,9.23
2018-12-13T02:56:08.102Z,9.03
2018-12-13T02:58:37.224Z,8.70
2018-12-13T03:01:05.397Z,8.73
2018-12-13T03:03:33.341Z,9.13
2018-12-13T03:06:01.296Z,9.13
2018-12-13T03:08:29.239Z,9.03
2018-12-13T03:10:59.752Z,9.60
2018-12-13T03:13:28.232Z,9.93
2018-12-13T03:15:56.195Z,8.83
2018-12-13T03:18:27.051Z,8.93
2018-12-13T03:20:55.042Z,8.80
2018-12-13T03:23:23.025Z,9.23
2018-12-13T03:25:50.969Z,9.73
2018-12-13T03:28:18.937Z,9.40
2018-12-13T03:30:47.195Z,9.67
2018-12-13T03:33:15.326Z,9.03
2018-12-13T03:35:43.844Z,9.57
2018-12-13T03:38:11.776Z,9.80
2018-12-13T03:40:39.721Z,9.67
2018-12-13T03:43:07.740Z,9.57
2018-12-13T03:45:35.690Z,10.33
2018-12-13T03:48:03.741Z,9.33
2018-12-13T03:50:32.456Z,9.63
2018-12-13T03:53:00.428Z,10.50
2018-12-13T03:55:28.436Z,10.33
2018-12-13T03:57:56.397Z,9.97
2018-12-13T04:00:24.336Z,10.13
2018-12-13T04:02:52.349Z,10.77
2018-12-13T04:05:20.392Z,10.40
2018-12-13T04:07:48.351Z,10.23
2018-12-13T04:10:16.304Z,11.00
2018-12-13T04:12:44.280Z,11.90
2018-12-13T04:15:12.374Z,11.10
2018-12-13T04:17:40.319Z,10.43
2018-12-13T04:20:10.320Z,11.10
2018-12-13T04:22:38.348Z,11.57
2018-12-13T04:25:06.311Z,11.53
2018-12-13T04:27:34.285Z,11.70
2018-12-13T04:30:02.250Z,11.80
2018-12-13T04:32:32.021Z,11.67
2018-12-13T04:34:59.974Z,12.03
2018-12-13T04:37:35.063Z,11.80
2018-12-13T04:39:57.915Z,11.93
2018-12-13T04:42:25.876Z,11.60
2018-12-13T04:44:53.819Z,12.60
2018-12-13T04:47:21.756Z,12.10
2018-12-13T04:49:49.715Z,12.17
2018-12-13T04:52:17.652Z,12.80
2018-12-13T04:54:45.599Z,12.60
2018-12-13T04:57:14.806Z,12.47
2018-12-13T04:59:42.732Z,12.63
2018-12-13T05:02:11.571Z,12.77
2018-12-13T05:04:39.552Z,12.67
2018-12-13T05:07:08.083Z,12.77
2018-12-13T05:09:36.783Z,13.00
2018-12-13T05:12:04.760Z,13.20
2018-12-13T05:14:33.333Z,13.00
2018-12-13T05:17:01.278Z,13.17
2018-12-13T05:19:29.260Z,12.87
2018-12-13T05:22:14.116Z,12.47
2018-12-13T05:24:42.099Z,13.63
2018-12-13T05:27:10.032Z,13.03
2018-12-13T05:29:37.964Z,12.83
2018-12-13T05:32:06.352Z,13.27
2018-12-13T05:34:34.285Z,13.63
2018-12-13T05:37:02.256Z,13.80
2018-12-13T05:39:30.226Z,13.57
2018-12-13T05:41:58.249Z,13.83
2018-12-13T05:44:26.196Z,13.40
2018-12-13T05:46:54.150Z,13.00
2018-12-13T05:49:22.940Z,13.73
2018-12-13T05:51:51.409Z,13.13
2018-12-13T05:54:19.368Z,13.40
2018-12-13T05:56:47.309Z,13.77
2018-12-13T05:59:15.257Z,13.23
2018-12-13T06:01:43.647Z,13.37
2018-12-13T06:04:11.589Z,12.67
2018-12-13T06:06:39.513Z,13.67
2018-12-13T06:09:07.507Z,13.77
2018-12-13T06:11:43.940Z,13.73
2018-12-13T06:14:21.955Z,13.70
2018-12-13T06:17:01.915Z,14.27
2018-12-13T06:19:37.878Z,14.57
2018-12-13T06:22:14.738Z,14.40
2018-12-13T06:24:52.830Z,14.07
2018-12-13T06:27:32.036Z,13.83
2018-12-13T06:30:10.571Z,14.40
2018-12-13T06:32:39.899Z,13.13
2018-12-13T06:35:07.885Z,14.27
2018-12-13T06:37:36.395Z,14.10
2018-12-13T06:40:05.435Z,13.90
2018-12-13T06:42:34.181Z,14.47
2018-12-13T06:45:04.552Z,13.53
2018-12-13T06:47:33.335Z,13.57
2018-12-13T06:50:01.836Z,14.30
2018-12-13T06:52:30.335Z,13.53
2018-12-13T06:54:59.008Z,14.63
2018-12-13T06:57:27.467Z,13.93
2018-12-13T06:59:55.975Z,13.93
2018-12-13T07:02:24.438Z,13.80
2018-12-13T07:05:00.711Z,13.47
2018-12-13T07:08:41.075Z,13.97
2018-12-13T07:11:19.061Z,13.80
2018-12-13T07:13:56.612Z,13.90
2018-12-13T07:16:34.341Z,13.83
2018-12-13T07:19:14.808Z,13.80
2018-12-13T07:21:54.117Z,13.97
2018-12-13T07:24:34.003Z,13.97
2018-12-13T07:27:03.373Z,13.37
2018-12-13T07:29:32.616Z,13.63
2018-12-13T07:32:01.097Z,13.13
2018-12-13T07:34:30.027Z,14.43
2018-12-13T07:36:58.035Z,13.07
2018-12-13T07:39:26.006Z,13.23
2018-12-13T07:41:54.011Z,14.33
2018-12-13T07:44:22.128Z,13.97
2018-12-13T07:46:50.143Z,13.67
2018-12-13T07:49:18.143Z,13.07
2018-12-13T07:51:46.148Z,13.97
2018-12-13T07:54:14.114Z,14.20
2018-12-13T07:56:42.109Z,14.03
2018-12-13T07:59:10.104Z,14.53
2018-12-13T08:01:38.529Z,14.03
2018-12-13T08:04:07.696Z,13.53
2018-12-13T08:06:35.672Z,14.27
2018-12-13T08:09:06.809Z,14.63
2018-12-13T08:11:36.032Z,13.97
2018-12-13T08:14:04.150Z,14.47
2018-12-13T08:16:32.122Z,13.90
2018-12-13T08:19:03.153Z,13.33
2018-12-13T08:21:33.334Z,14.33
2018-12-13T08:24:01.321Z,14.07
2018-12-13T08:26:29.336Z,14.30
2018-12-13T08:28:57.325Z,14.53
2018-12-13T08:31:25.301Z,14.50
2018-12-13T08:33:53.323Z,13.80
2018-12-13T08:36:22.016Z,14.30
2018-12-13T08:38:49.964Z,14.23
2018-12-13T08:41:17.981Z,13.83
2018-12-13T08:43:45.957Z,13.53
2018-12-13T08:46:14.026Z,14.67
2018-12-13T08:48:42.484Z,14.40
2018-12-13T08:51:10.524Z,14.17
2018-12-13T08:53:38.490Z,14.83
2018-12-13T08:56:07.199Z,13.73
2018-12-13T08:58:35.161Z,14.30
2018-12-13T09:01:03.150Z,14.40
2018-12-13T09:03:31.152Z,14.93
2018-12-13T09:05:59.126Z,14.83
2018-12-13T09:08:33.437Z,14.63
2018-12-13T09:10:57.133Z,14.27
2018-12-13T09:13:25.113Z,15.23
2018-12-13T09:15:53.096Z,14.73
2018-12-13T09:18:22.358Z,15.27
2018-12-13T09:20:50.470Z,15.50
2018-12-13T09:23:18.502Z,14.20
2018-12-13T09:25:46.473Z,14.10
2018-12-13T09:28:14.480Z,14.17
2018-12-13T09:30:42.478Z,14.50
2018-12-13T09:33:10.467Z,14.03
2018-12-13T09:35:38.463Z,14.83
2018-12-13T09:38:06.956Z,14.97
2018-12-13T09:40:34.974Z,15.33
2018-12-13T09:43:02.949Z,14.50
2018-12-13T09:45:30.939Z,15.17
2018-12-13T09:47:58.940Z,15.13
2018-12-13T09:50:26.908Z,15.13
2018-12-13T09:52:54.868Z,15.63
2018-12-13T09:55:22.908Z,14.43
2018-12-13T09:57:50.892Z,14.27
2018-12-13T10:00:18.881Z,15.67
2018-12-13T10:02:46.858Z,16.20
2018-12-13T10:05:19.273Z,14.87
2018-12-13T10:07:48.138Z,14.20
2018-12-13T10:10:16.117Z,14.47
2018-12-13T10:12:44.093Z,15.13
2018-12-13T10:15:12.136Z,14.07
2018-12-13T10:17:40.174Z,14.77
2018-12-13T10:20:08.256Z,14.20
2018-12-13T10:22:36.266Z,14.67
2018-12-13T10:25:05.008Z,36.30
2018-12-13T10:27:33.104Z,24.63
2018-12-13T10:30:01.177Z,15.27
2018-12-13T10:32:29.139Z,15.30
2018-12-13T10:34:57.131Z,17.07
2018-12-13T10:37:25.267Z,15.83
2018-12-13T10:39:53.216Z,15.93
2018-12-13T10:42:21.164Z,14.53
2018-12-13T10:44:50.437Z,15.27
2018-12-13T10:47:18.373Z,13.90
2018-12-13T10:49:46.310Z,13.83
2018-12-13T10:52:14.271Z,14.47
2018-12-13T10:54:42.203Z,13.80
2018-12-13T10:57:10.140Z,13.90
2018-12-13T10:59:38.188Z,15.00
2018-12-13T11:02:10.636Z,14.87
2018-12-13T11:04:38.581Z,13.80
2018-12-13T11:07:07.241Z,14.40
2018-12-13T11:09:35.176Z,15.20
2018-12-13T11:12:03.157Z,15.77
2018-12-13T11:14:31.109Z,20.67
2018-12-13T11:16:59.073Z,17.30
2018-12-13T11:19:27.046Z,29.20
2018-12-13T11:21:54.983Z,23.83
2018-12-13T11:24:23.523Z,17.00
2018-12-13T11:26:51.553Z,20.43
2018-12-13T11:29:33.807Z,16.60
2018-12-13T11:32:01.882Z,20.43
2018-12-13T11:34:29.841Z,20.97
2018-12-13T11:36:57.774Z,36.00
2018-12-13T11:39:25.732Z,21.00
2018-12-13T11:41:54.372Z,19.80
2018-12-13T11:44:26.245Z,22.60
2018-12-13T11:46:54.300Z,17.30
2018-12-13T11:49:22.426Z,18.37
2018-12-13T11:51:50.424Z,17.80
2018-12-13T11:54:33.392Z,18.57
2018-12-13T11:57:01.348Z,16.60
2018-12-13T11:59:29.317Z,16.97
2018-12-13T12:01:57.791Z,18.13
2018-12-13T12:04:25.832Z,17.87
2018-12-13T12:06:53.802Z,19.67
2018-12-13T12:09:21.775Z,17.27
2018-12-13T12:11:50.100Z,16.50
2018-12-13T12:14:18.083Z,17.47
2018-12-13T12:16:47.056Z,17.43
2018-12-13T12:19:15.082Z,17.63
2018-12-13T12:21:43.058Z,20.53
2018-12-13T12:24:11.065Z,19.30
2018-12-13T12:26:39.997Z,31.30
2018-12-13T12:29:08.018Z,17.53
2018-12-13T12:31:35.960Z,20.40
2018-12-13T12:34:03.931Z,20.50
2018-12-13T12:36:32.124Z,19.93
2018-12-13T12:39:00.391Z,22.30
2018-12-13T12:41:28.369Z,20.93
2018-12-13T12:43:56.307Z,17.97
2018-12-13T12:46:24.287Z,20.07
2018-12-13T12:48:52.257Z,17.90
2018-12-13T12:51:20.212Z,18.30
2018-12-13T12:53:48.154Z,20.90
2018-12-13T12:56:16.133Z,19.07
2018-12-13T12:58:44.076Z,20.53
2018-12-13T13:01:12.094Z,17.07
2018-12-13T13:03:40.070Z,20.00
2018-12-13T13:06:08.036Z,17.37
2018-12-13T13:08:36.053Z,19.13
2018-12-13T13:11:04.768Z,16.97
2018-12-13T13:13:32.725Z,17.57
2018-12-13T13:16:00.694Z,17.40
2018-12-13T13:18:28.681Z,16.87
2018-12-13T13:20:56.725Z,15.47
2018-12-13T13:23:24.935Z,17.07
2018-12-13T13:25:52.930Z,17.57
2018-12-13T13:28:20.928Z,16.70
2018-12-13T13:30:48.929Z,17.77
2018-12-13T13:33:16.975Z,20.50
2018-12-13T13:35:44.955Z,22.17
2018-12-13T13:38:12.911Z,20.97
2018-12-13T13:40:40.935Z,17.63
2018-12-13T13:43:09.094Z,21.30
2018-12-13T13:45:37.065Z,29.07
2018-12-13T13:48:05.022Z,20.97
2018-12-13T13:50:32.975Z,21.80
2018-12-13T13:54:03.958Z,24.20
2018-12-13T13:56:31.901Z,28.07
2018-12-13T13:58:59.845Z,20.10
2018-12-13T14:01:27.817Z,20.87
2018-12-13T14:03:55.774Z,18.47
2018-12-13T14:06:23.707Z,21.67
2018-12-13T14:08:51.669Z,20.43
2018-12-13T14:11:19.668Z,19.53
2018-12-13T14:13:47.892Z,16.47
2018-12-13T14:16:15.879Z,17.00
2018-12-13T14:18:43.823Z,17.23
2018-12-13T14:21:11.822Z,21.23
2018-12-13T14:23:39.821Z,34.47
2018-12-13T14:26:07.750Z,33.27
2018-12-13T14:28:35.692Z,35.00
2018-12-13T14:31:03.932Z,42.00
2018-12-13T14:33:31.902Z,27.97
2018-12-13T14:35:59.902Z,20.43
2018-12-13T14:38:29.034Z,18.37
2018-12-13T14:40:59.049Z,20.73
2018-12-13T14:43:29.757Z,16.57
2018-12-13T14:45:58.502Z,19.53
2018-12-13T14:48:27.188Z,17.17
2018-12-13T14:50:55.888Z,18.00
2018-12-13T14:53:24.730Z,16.93
2018-12-13T14:55:52.735Z,22.60
2018-12-13T14:58:21.513Z,19.43
2018-12-13T15:00:50.165Z,19.70
2018-12-13T15:03:18.109Z,18.37
2018-12-13T15:05:46.959Z,21.80
2018-12-13T15:08:15.580Z,18.10
2018-12-13T15:10:43.659Z,26.47
2018-12-13T15:13:11.642Z,23.83
2018-12-13T15:15:39.633Z,18.57
2018-12-13T15:18:07.576Z,27.63
2018-12-13T15:20:36.460Z,35.87
2018-12-13T15:23:05.054Z,37.17
2018-12-13T15:25:33.041Z,27.23
2018-12-13T15:28:01.114Z,19.83
2018-12-13T15:30:29.149Z,26.60
2018-12-13T15:32:57.738Z,22.07
2018-12-13T15:35:27.296Z,22.80
2018-12-13T15:37:56.137Z,19.27
2018-12-13T15:40:24.284Z,25.53
2018-12-13T15:42:52.994Z,21.33
2018-12-13T15:45:22.117Z,26.77
2018-12-13T15:47:50.923Z,32.20
2018-12-13T15:50:19.829Z,26.57
2018-12-13T15:52:47.954Z,24.57
2018-12-13T15:55:16.142Z,24.53
2018-12-13T15:57:44.965Z,21.77
2018-12-13T16:00:13.758Z,20.37
2018-12-13T16:02:44.688Z,16.73
2018-12-13T16:05:13.613Z,24.43
2018-12-13T16:07:42.520Z,21.60
2018-12-13T16:10:11.574Z,18.07
2018-12-13T16:12:40.479Z,18.57
2018-12-13T16:15:09.615Z,41.37
2018-12-13T16:17:37.784Z,63.23
2018-12-13T16:20:07.085Z,93.63
2018-12-13T16:22:35.962Z,76.50
2018-12-13T16:25:04.700Z,62.80
2018-12-13T16:27:33.724Z,61.63
2018-12-13T16:30:02.932Z,53.57
2018-12-13T16:32:32.514Z,31.27
2018-12-13T16:35:01.320Z,56.20
2018-12-13T16:37:29.437Z,49.27
2018-12-13T16:39:58.249Z,25.60
2018-12-13T16:42:26.303Z,42.03
2018-12-13T16:44:56.555Z,52.30
2018-12-13T16:47:24.638Z,29.87
2018-12-13T16:49:52.869Z,32.77
2018-12-13T16:52:21.384Z,53.87
2018-12-13T16:54:49.988Z,41.57
2018-12-13T16:57:18.078Z,24.57
2018-12-13T17:00:49.976Z,22.87
2018-12-13T17:03:29.179Z,19.13
2018-12-13T17:05:57.242Z,18.50
2018-12-13T17:08:25.539Z,19.73
2018-12-13T17:10:53.596Z,17.57
2018-12-13T17:13:21.585Z,19.60
2018-12-13T17:15:50.214Z,17.20
2018-12-13T17:18:18.306Z,26.70
2018-12-13T17:20:46.373Z,35.63
2018-12-13T17:23:15.305Z,23.50
2018-12-13T17:25:43.796Z,18.80
2018-12-13T17:28:11.975Z,21.13
2018-12-13T17:30:40.260Z,19.77
2018-12-13T17:33:09.041Z,22.97
2018-12-13T17:35:37.294Z,19.07
2018-12-13T17:38:05.430Z,17.50
2018-12-13T17:40:33.571Z,19.87
2018-12-13T17:43:01.668Z,18.93
2018-12-13T17:45:32.717Z,18.87
2018-12-13T17:48:01.284Z,22.87
2018-12-13T17:50:30.550Z,19.30
2018-12-13T17:53:01.210Z,24.73
2018-12-13T17:55:34.023Z,18.47
2018-12-13T17:58:02.016Z,17.77
2018-12-13T18:00:33.703Z,18.83
2018-12-13T18:03:02.111Z,17.77
2018-12-13T18:05:30.958Z,15.77
2018-12-13T18:28:13.711Z,17.47
2018-12-13T18:30:42.608Z,22.53
2018-12-13T18:33:10.639Z,19.83
2018-12-13T18:35:38.908Z,18.43
2018-12-13T18:38:06.963Z,16.47
2018-12-13T18:40:35.726Z,19.00
2018-12-13T18:43:04.407Z,26.40
2018-12-13T18:45:36.725Z,30.93
2018-12-13T18:48:06.114Z,24.30
2018-12-13T18:50:34.799Z,25.30
2018-12-13T18:53:03.132Z,23.40
2018-12-13T18:55:31.228Z,26.37
2018-12-13T18:57:59.244Z,22.83
2018-12-13T19:00:27.414Z,18.63
2018-12-13T19:03:11.109Z,19.07
2018-12-13T19:05:55.677Z,22.70
2018-12-13T19:08:40.524Z,22.23
2018-12-13T19:11:25.134Z,20.67
2018-12-13T19:14:10.409Z,18.17
2018-12-13T19:16:52.155Z,22.00
2018-12-13T19:19:36.735Z,26.97
2018-12-13T19:22:24.416Z,21.67
2018-12-13T19:25:10.839Z,21.13
2018-12-13T19:27:59.196Z,26.30
2018-12-13T19:30:45.195Z,21.73
2018-12-13T19:33:30.378Z,30.93
2018-12-13T19:36:15.419Z,20.03
2018-12-13T19:38:59.200Z,23.70
2018-12-13T19:41:28.953Z,21.77
2018-12-13T19:43:57.287Z,23.23
2018-12-13T19:46:25.556Z,23.93
2018-12-13T19:48:54.192Z,24.90
2018-12-13T19:51:22.166Z,32.23
2018-12-13T19:53:50.133Z,26.07
2018-12-13T19:56:19.553Z,23.27
2018-12-13T19:58:48.560Z,24.50
2018-12-13T20:01:16.643Z,25.97
2018-12-13T20:03:44.778Z,22.80
2018-12-13T20:06:13.040Z,22.43
2018-12-13T20:08:41.107Z,22.30
2018-12-13T20:11:20.012Z,20.37
2018-12-13T20:13:58.440Z,22.07
2018-12-13T20:16:38.939Z,19.27
2018-12-13T20:19:19.947Z,21.87
2018-12-13T20:22:01.219Z,24.33
2018-12-13T20:24:42.557Z,18.67
2018-12-13T20:27:23.160Z,18.00
2018-12-13T20:30:01.931Z,19.57
2018-12-13T20:32:43.137Z,19.60
2018-12-13T20:35:13.367Z,21.73
2018-12-13T20:37:41.752Z,19.40
2018-12-13T20:40:09.859Z,19.23
2018-12-13T20:42:37.882Z,19.63
2018-12-13T20:45:06.936Z,20.87
2018-12-13T20:47:34.959Z,22.57
2018-12-13T20:50:03.909Z,23.20
2018-12-13T20:52:44.983Z,25.37
2018-12-13T20:55:25.707Z,25.30
2018-12-13T20:58:06.099Z,23.70
2018-12-13T21:00:42.624Z,28.87
2018-12-13T21:03:22.790Z,29.50
2018-12-13T21:06:08.332Z,29.00
2018-12-13T21:08:52.612Z,27.07
2018-12-13T21:11:32.657Z,29.90
2018-12-13T21:14:10.336Z,26.33
2018-12-13T21:16:44.320Z,27.53
2018-12-13T21:19:25.485Z,29.07
2018-12-13T21:21:57.249Z,25.37
2018-12-13T21:24:25.330Z,23.97
2018-12-13T21:26:53.357Z,23.53
2018-12-13T21:29:21.354Z,24.73
2018-12-13T21:32:00.627Z,24.60
2018-12-13T21:34:42.179Z,24.70
2018-12-13T21:37:21.931Z,23.77
2018-12-13T21:39:58.899Z,24.33
2018-12-13T21:42:38.751Z,25.30
2018-12-13T21:45:22.315Z,28.23
2018-12-13T21:48:03.457Z,30.60
2018-12-13T21:50:43.907Z,30.33
2018-12-13T21:53:22.975Z,30.73
2018-12-13T21:56:01.689Z,30.80
2018-12-13T21:58:30.383Z,30.23
2018-12-13T22:00:58.949Z,29.27
2018-12-13T22:03:27.573Z,31.00
2018-12-13T22:05:56.315Z,31.00
2018-12-13T22:08:24.825Z,33.53
2018-12-13T22:10:55.072Z,34.23
2018-12-13T22:13:23.704Z,31.87
2018-12-13T22:15:52.071Z,32.93
2018-12-13T22:18:20.129Z,31.87
2018-12-13T22:20:48.140Z,31.90
2018-12-13T22:23:16.103Z,30.83
2018-12-13T22:25:44.712Z,30.47
2018-12-13T22:28:12.761Z,30.53
2018-12-13T22:30:40.749Z,31.43
2018-12-13T22:33:08.725Z,33.53
2018-12-13T22:35:36.705Z,33.23
2018-12-13T22:38:04.685Z,32.13
2018-12-13T22:40:32.756Z,28.47
2018-12-13T22:43:00.760Z,27.17
2018-12-13T22:45:28.712Z,24.73
2018-12-13T22:47:56.740Z,22.90
2018-12-13T22:50:24.728Z,23.40
2018-12-13T22:52:52.698Z,30.90
2018-12-13T22:55:20.677Z,22.93
2018-12-13T22:57:49.488Z,25.03
2018-12-13T23:00:17.607Z,19.80
2018-12-13T23:05:45.269Z,18.83
2018-12-13T23:08:14.139Z,17.57
2018-12-13T23:10:42.164Z,20.20
2018-12-13T23:13:10.198Z,18.37
2018-12-13T23:15:38.181Z,18.00
2018-12-13T23:18:06.247Z,18.57
2018-12-13T23:20:34.333Z,17.97
2018-12-13T23:23:02.312Z,18.17
2018-12-13T23:25:30.291Z,18.33
2018-12-13T23:27:58.301Z,19.50
2018-12-13T23:30:26.276Z,17.63
2018-12-13T23:32:54.251Z,18.27
2018-12-13T23:35:22.245Z,19.23
2018-12-13T23:37:50.208Z,17.83
2018-12-13T23:40:18.168Z,18.00
2018-12-13T23:42:46.205Z,18.57
2018-12-13T23:45:14.191Z,19.40
2018-12-13T23:47:42.133Z,18.47
2018-12-13T23:50:10.185Z,19.60
2018-12-13T23:52:38.192Z,21.37
2018-12-13T23:55:06.865Z,22.43
2018-12-13T23:57:34.871Z,22.50
